Time;durP1;ratioP1;P1;durP2;ratioP2;P2;SDS_P1;SDS_P2;PMS_P1;PMS_P2;Temp;Humidity;BMP_temperature;BMP_pressure;BME280_temperature;BME280_humidity;BME280_pressure;Samples;Min_cycle;Max_cycle;Signal;HPM_P1;HPM_P2
2022/09/24 08:27:35;;;;;;;9.37;5.23;;;14.90;99.90;;;;;;6184413;23;20192;-68
2022/09/24 08:30:03;;;;;;;8.93;5.23;;;14.90;99.90;;;;;;6185403;23;20553;-70
2022/09/24 08:32:29;;;;;;;12.17;5.70;;;14.90;99.90;;;;;;6185421;23;20236;-72
2022/09/24 08:34:56;;;;;;;8.43;4.90;;;14.90;99.90;;;;;;6186073;23;20554;-70
2022/09/24 08:37:23;;;;;;;10.23;5.03;;;14.90;99.90;;;;;;6185195;23;20280;-73
2022/09/24 08:39:50;;;;;;;13.00;5.13;;;14.90;99.90;;;;;;6184771;23;20220;-68
2022/09/24 08:42:33;;;;;;;7.50;4.50;;;14.90;99.90;;;;;;6185691;23;20212;-72
2022/09/24 08:47:51;;;;;;;9.23;4.80;;;14.80;99.90;;;;;;6185022;23;20200;-71
2022/09/24 08:50:21;;;;;;;9.20;4.50;;;14.80;99.90;;;;;;6185908;23;20256;-70
2022/09/24 08:53:02;;;;;;;11.03;4.93;;;14.90;99.90;;;;;;6185077;23;20256;-72
2022/09/24 08:55:34;;;;;;;10.40;5.10;;;14.90;99.90;;;;;;6184736;23;20184;-71
2022/09/24 08:58:16;;;;;;;9.33;5.03;;;14.90;99.90;;;;;;6185977;23;20255;-73
2022/09/24 09:00:51;;;;;;;11.90;4.80;;;14.90;99.90;;;;;;6185778;23;20180;-72
2022/09/24 09:03:25;;;;;;;9.70;5.23;;;14.90;99.90;;;;;;6184797;23;20279;-73
2022/09/24 09:05:56;;;;;;;8.77;5.03;;;14.80;99.90;;;;;;6185880;23;20181;-72
2022/09/24 09:08:32;;;;;;;8.77;4.80;;;14.80;99.90;;;;;;6185723;23;20203;-72
2022/09/24 09:11:03;;;;;;;10.47;5.53;;;14.90;99.90;;;;;;6184610;23;20633;-71
2022/09/24 09:13:33;;;;;;;11.40;5.00;;;15.00;99.90;;;;;;6185598;23;20185;-69
2022/09/24 09:16:06;;;;;;;11.97;5.47;;;14.90;99.90;;;;;;6185769;23;20215;-71
2022/09/24 09:18:37;;;;;;;11.73;5.80;;;14.90;99.90;;;;;;6183324;23;20215;-71
2022/09/24 09:21:10;;;;;;;9.80;5.47;;;14.90;99.90;;;;;;6184973;23;20212;-70
2022/09/24 09:23:45;;;;;;;11.13;5.17;;;15.00;99.90;;;;;;6185654;23;20260;-69
2022/09/24 09:26:12;;;;;;;11.03;5.53;;;14.90;99.90;;;;;;6184337;23;20200;-70
2022/09/24 09:28:39;;;;;;;12.93;5.87;;;14.90;99.90;;;;;;6184818;23;20205;-70
2022/09/24 09:31:20;;;;;;;12.07;5.87;;;15.00;99.90;;;;;;6184471;23;20260;-73
2022/09/24 09:34:07;;;;;;;11.20;5.50;;;15.10;99.90;;;;;;6185245;23;20184;-71
2022/09/24 09:36:44;;;;;;;9.97;4.90;;;15.00;99.90;;;;;;6180665;23;20177;-72
2022/09/24 09:39:22;;;;;;;9.87;4.93;;;15.10;99.90;;;;;;6184894;23;20215;-72
2022/09/24 09:41:56;;;;;;;11.83;5.73;;;15.00;99.90;;;;;;6185214;23;20567;-75
2022/09/24 09:44:25;;;;;;;8.70;4.47;;;14.90;99.90;;;;;;6185240;23;20189;-71
2022/09/24 09:46:59;;;;;;;12.13;5.03;;;15.00;99.90;;;;;;6184323;23;20656;-74
2022/09/24 09:49:31;;;;;;;9.80;4.63;;;14.90;99.90;;;;;;6184916;23;20687;-71
2022/09/24 09:52:02;;;;;;;8.90;5.60;;;14.90;99.90;;;;;;6184694;23;20332;-70
2022/09/24 09:54:36;;;;;;;10.73;5.00;;;14.80;99.90;;;;;;6184135;23;20178;-72
2022/09/24 09:57:05;;;;;;;8.07;4.23;;;14.90;99.90;;;;;;6184976;23;20183;-73
2022/09/24 09:59:34;;;;;;;10.97;5.73;;;14.90;99.90;;;;;;6185503;23;20260;-72
2022/09/24 10:02:02;;;;;;;8.47;4.33;;;14.80;99.90;;;;;;6184900;23;20657;-71
2022/09/24 10:04:38;;;;;;;12.60;4.77;;;14.80;99.90;;;;;;6184625;23;20256;-70
2022/09/24 10:07:07;;;;;;;10.57;4.53;;;14.90;99.90;;;;;;6185013;23;20183;-70
2022/09/24 10:09:35;;;;;;;9.70;4.60;;;14.90;99.90;;;;;;6184508;23;20188;-71
2022/09/24 10:12:16;;;;;;;9.77;4.93;;;15.00;99.90;;;;;;6185136;23;20271;-72
2022/09/24 10:14:44;;;;;;;8.83;4.57;;;15.10;99.90;;;;;;6185375;23;20185;-70
2022/09/24 10:17:16;;;;;;;9.73;4.30;;;15.20;99.90;;;;;;6186235;23;20260;-69
2022/09/24 10:19:46;;;;;;;7.77;4.50;;;15.20;99.90;;;;;;6186361;23;20177;-70
2022/09/24 10:22:20;;;;;;;10.70;4.77;;;15.20;99.90;;;;;;6186505;23;20201;-69
2022/09/24 10:24:49;;;;;;;10.37;4.57;;;15.20;99.90;;;;;;6186117;23;20637;-68
2022/09/24 10:27:30;;;;;;;8.97;4.60;;;15.20;99.90;;;;;;6186028;23;20268;-73
2022/09/24 10:32:47;;;;;;;8.37;4.50;;;15.40;99.90;;;;;;6186032;23;20196;-72
2022/09/24 10:35:25;;;;;;;9.73;4.70;;;15.20;99.90;;;;;;6186401;23;20177;-72
2022/09/24 10:37:52;;;;;;;9.53;4.70;;;15.10;99.90;;;;;;6186153;23;20211;-72
2022/09/24 10:40:26;;;;;;;9.97;5.20;;;15.10;99.90;;;;;;6185664;23;20498;-69
2022/09/24 10:42:58;;;;;;;10.63;5.07;;;15.10;99.90;;;;;;6185782;23;20197;-71
2022/09/24 10:45:42;;;;;;;8.37;4.07;;;15.10;99.90;;;;;;6186561;23;20177;-67
2022/09/24 10:48:17;;;;;;;9.77;4.80;;;15.20;99.90;;;;;;6185899;23;20268;-69
2022/09/24 10:50:53;;;;;;;8.30;4.23;;;15.20;99.90;;;;;;6186076;23;20180;-68
2022/09/24 10:53:28;;;;;;;11.23;4.27;;;15.20;99.90;;;;;;6186360;23;20203;-71
2022/09/24 10:56:02;;;;;;;7.93;4.60;;;15.10;99.90;;;;;;6186282;23;20256;-69
2022/09/24 10:59:08;;;;;;;8.60;4.60;;;15.10;99.90;;;;;;6185696;23;20732;-68
2022/09/24 11:01:46;;;;;;;9.50;4.40;;;15.30;99.90;;;;;;6182830;23;20279;-68
2022/09/24 11:04:39;;;;;;;7.77;4.00;;;15.30;99.90;;;;;;6185215;23;20260;-67
2022/09/24 11:07:36;;;;;;;6.10;3.50;;;15.20;99.90;;;;;;6186050;23;20192;-67
2022/09/24 11:10:19;;;;;;;6.43;3.50;;;15.30;99.90;;;;;;6185542;23;20256;-69
2022/09/24 11:12:56;;;;;;;7.07;3.30;;;15.30;99.90;;;;;;6185544;23;20280;-68
2022/09/24 11:15:41;;;;;;;7.43;3.30;;;15.20;99.90;;;;;;6186186;23;20188;-67
2022/09/24 11:18:25;;;;;;;7.53;3.80;;;15.10;99.90;;;;;;6185878;23;20288;-68
2022/09/24 11:21:02;;;;;;;5.73;3.07;;;15.20;99.90;;;;;;6185361;23;20555;-68
2022/09/24 11:23:56;;;;;;;3.97;2.83;;;15.20;99.90;;;;;;6185612;23;20187;-68
2022/09/24 11:26:31;;;;;;;5.90;2.93;;;15.30;99.90;;;;;;6185212;23;20708;-68
2022/09/24 11:29:12;;;;;;;6.13;3.00;;;15.40;99.90;;;;;;6185272;23;20203;-68
2022/09/24 11:31:42;;;;;;;8.40;3.37;;;15.40;99.90;;;;;;6184981;23;20201;-68
2022/09/24 11:34:26;;;;;;;5.20;2.90;;;15.40;99.90;;;;;;6185067;23;20191;-68
2022/09/24 11:37:07;;;;;;;6.17;3.33;;;15.60;99.90;;;;;;6185465;23;20188;-70
2022/09/24 11:39:51;;;;;;;7.07;3.33;;;15.70;99.90;;;;;;6185181;23;20245;-67
